sensor_id;sensor_type;location;lat;lon;timestamp;P1;durP1;ratioP1;P2;durP2;ratioP2
70787;SDS011;68385;47.752;19.100;2023-11-21T00:02:46;0.30;;;0.10;;
70787;SDS011;68385;47.752;19.100;2023-11-21T00:05:48;0.35;;;0.05;;
70787;SDS011;68385;47.752;19.100;2023-11-21T00:08:50;0.50;;;0.23;;
70787;SDS011;68385;47.752;19.100;2023-11-21T00:11:52;0.62;;;0.32;;
70787;SDS011;68385;47.752;19.100;2023-11-21T00:14:53;0.40;;;0.10;;
70787;SDS011;68385;47.752;19.100;2023-11-21T00:17:59;0.40;;;0.10;;
70787;SDS011;68385;47.752;19.100;2023-11-21T00:21:01;0.50;;;0.10;;
70787;SDS011;68385;47.752;19.100;2023-11-21T00:24:04;0.80;;;0.30;;
70787;SDS011;68385;47.752;19.100;2023-11-21T00:27:06;0.40;;;0.10;;
70787;SDS011;68385;47.752;19.100;2023-11-21T00:30:08;1.10;;;0.85;;
70787;SDS011;68385;47.752;19.100;2023-11-21T00:33:10;0.65;;;0.55;;
70787;SDS011;68385;47.752;19.100;2023-11-21T00:36:12;1.15;;;0.35;;
70787;SDS011;68385;47.752;19.100;2023-11-21T00:39:14;0.73;;;0.33;;
70787;SDS011;68385;47.752;19.100;2023-11-21T00:42:16;0.57;;;0.20;;
70787;SDS011;68385;47.752;19.100;2023-11-21T00:45:18;0.30;;;0.10;;
70787;SDS011;68385;47.752;19.100;2023-11-21T00:48:19;0.40;;;0.10;;
70787;SDS011;68385;47.752;19.100;2023-11-21T00:51:21;0.70;;;0.37;;
70787;SDS011;68385;47.752;19.100;2023-11-21T00:54:23;0.67;;;0.37;;
70787;SDS011;68385;47.752;19.100;2023-11-21T00:57:26;0.40;;;0.10;;
70787;SDS011;68385;47.752;19.100;2023-11-21T01:00:28;0.70;;;0.30;;
70787;SDS011;68385;47.752;19.100;2023-11-21T01:03:29;0.60;;;0.30;;
70787;SDS011;68385;47.752;19.100;2023-11-21T01:06:32;0.50;;;0.10;;
70787;SDS011;68385;47.752;19.100;2023-11-21T01:09:34;0.43;;;0.10;;
70787;SDS011;68385;47.752;19.100;2023-11-21T01:12:36;0.85;;;0.45;;
70787;SDS011;68385;47.752;19.100;2023-11-21T01:15:39;0.40;;;0.10;;
70787;SDS011;68385;47.752;19.100;2023-11-21T01:18:41;0.30;;;0.00;;
70787;SDS011;68385;47.752;19.100;2023-11-21T01:21:42;0.40;;;0.10;;
70787;SDS011;68385;47.752;19.100;2023-11-21T01:24:44;0.30;;;0.10;;
70787;SDS011;68385;47.752;19.100;2023-11-21T01:27:46;0.37;;;0.10;;
70787;SDS011;68385;47.752;19.100;2023-11-21T01:30:48;0.50;;;0.20;;
70787;SDS011;68385;47.752;19.100;2023-11-21T01:33:50;1.15;;;0.43;;
70787;SDS011;68385;47.752;19.100;2023-11-21T01:36:52;0.30;;;0.00;;
70787;SDS011;68385;47.752;19.100;2023-11-21T01:39:54;0.30;;;0.10;;
70787;SDS011;68385;47.752;19.100;2023-11-21T01:42:58;0.60;;;0.30;;
70787;SDS011;68385;47.752;19.100;2023-11-21T01:46:00;0.70;;;0.30;;
70787;SDS011;68385;47.752;19.100;2023-11-21T01:49:02;0.40;;;0.10;;
70787;SDS011;68385;47.752;19.100;2023-11-21T01:52:05;0.35;;;0.10;;
70787;SDS011;68385;47.752;19.100;2023-11-21T01:55:08;0.60;;;0.30;;
70787;SDS011;68385;47.752;19.100;2023-11-21T01:58:10;0.40;;;0.10;;
70787;SDS011;68385;47.752;19.100;2023-11-21T02:01:14;0.37;;;0.10;;
70787;SDS011;68385;47.752;19.100;2023-11-21T02:04:16;0.30;;;0.10;;
70787;SDS011;68385;47.752;19.100;2023-11-21T02:07:18;0.77;;;0.17;;
70787;SDS011;68385;47.752;19.100;2023-11-21T02:10:21;0.40;;;0.10;;
70787;SDS011;68385;47.752;19.100;2023-11-21T02:13:26;0.50;;;0.10;;
70787;SDS011;68385;47.752;19.100;2023-11-21T02:16:27;0.40;;;0.10;;
70787;SDS011;68385;47.752;19.100;2023-11-21T02:19:32;0.93;;;0.30;;
70787;SDS011;68385;47.752;19.100;2023-11-21T02:22:35;0.50;;;0.15;;
70787;SDS011;68385;47.752;19.100;2023-11-21T02:25:40;3.50;;;2.40;;
70787;SDS011;68385;47.752;19.100;2023-11-21T02:28:44;0.95;;;0.28;;
70787;SDS011;68385;47.752;19.100;2023-11-21T02:31:46;0.43;;;0.15;;
70787;SDS011;68385;47.752;19.100;2023-11-21T02:34:50;0.40;;;0.10;;
70787;SDS011;68385;47.752;19.100;2023-11-21T02:37:53;1.60;;;0.65;;
70787;SDS011;68385;47.752;19.100;2023-11-21T02:40:56;0.70;;;0.20;;
70787;SDS011;68385;47.752;19.100;2023-11-21T02:44:00;1.55;;;0.93;;
70787;SDS011;68385;47.752;19.100;2023-11-21T02:47:02;0.57;;;0.22;;
70787;SDS011;68385;47.752;19.100;2023-11-21T02:50:04;0.30;;;0.10;;
70787;SDS011;68385;47.752;19.100;2023-11-21T02:53:08;1.60;;;0.57;;
70787;SDS011;68385;47.752;19.100;2023-11-21T02:56:12;0.30;;;0.10;;
70787;SDS011;68385;47.752;19.100;2023-11-21T02:59:14;0.30;;;0.00;;
70787;SDS011;68385;47.752;19.100;2023-11-21T03:02:17;0.93;;;0.20;;
70787;SDS011;68385;47.752;19.100;2023-11-21T03:09:53;0.30;;;0.10;;
70787;SDS011;68385;47.752;19.100;2023-11-21T03:12:55;0.43;;;0.10;;
70787;SDS011;68385;47.752;19.100;2023-11-21T03:15:58;0.50;;;0.17;;
70787;SDS011;68385;47.752;19.100;2023-11-21T03:19:00;0.40;;;0.10;;
70787;SDS011;68385;47.752;19.100;2023-11-21T03:22:02;0.30;;;0.10;;
70787;SDS011;68385;47.752;19.100;2023-11-21T03:25:06;0.30;;;0.00;;
70787;SDS011;68385;47.752;19.100;2023-11-21T03:28:12;0.57;;;0.10;;
70787;SDS011;68385;47.752;19.100;2023-11-21T03:31:15;0.57;;;0.20;;
70787;SDS011;68385;47.752;19.100;2023-11-21T03:34:26;0.40;;;0.10;;
70787;SDS011;68385;47.752;19.100;2023-11-21T03:37:29;0.50;;;0.20;;
70787;SDS011;68385;47.752;19.100;2023-11-21T03:40:31;0.30;;;0.03;;
70787;SDS011;68385;47.752;19.100;2023-11-21T03:43:33;0.80;;;0.60;;
70787;SDS011;68385;47.752;19.100;2023-11-21T03:46:35;0.30;;;0.00;;
70787;SDS011;68385;47.752;19.100;2023-11-21T03:49:37;0.50;;;0.20;;
70787;SDS011;68385;47.752;19.100;2023-11-21T03:52:39;0.30;;;0.10;;
70787;SDS011;68385;47.752;19.100;2023-11-21T03:55:41;3.35;;;0.62;;
70787;SDS011;68385;47.752;19.100;2023-11-21T03:58:43;1.33;;;0.40;;
70787;SDS011;68385;47.752;19.100;2023-11-21T04:01:45;0.40;;;0.10;;
70787;SDS011;68385;47.752;19.100;2023-11-21T04:04:46;1.02;;;0.62;;
70787;SDS011;68385;47.752;19.100;2023-11-21T04:07:49;0.30;;;0.10;;
70787;SDS011;68385;47.752;19.100;2023-11-21T04:10:51;0.47;;;0.17;;
70787;SDS011;68385;47.752;19.100;2023-11-21T04:13:55;0.80;;;0.53;;
70787;SDS011;68385;47.752;19.100;2023-11-21T04:16:56;0.68;;;0.30;;
70787;SDS011;68385;47.752;19.100;2023-11-21T04:19:58;0.40;;;0.10;;
70787;SDS011;68385;47.752;19.100;2023-11-21T04:23:00;0.30;;;0.00;;
70787;SDS011;68385;47.752;19.100;2023-11-21T04:26:02;0.30;;;0.10;;
70787;SDS011;68385;47.752;19.100;2023-11-21T04:29:04;1.03;;;0.43;;
70787;SDS011;68385;47.752;19.100;2023-11-21T04:32:06;1.05;;;0.32;;
70787;SDS011;68385;47.752;19.100;2023-11-21T04:35:08;0.40;;;0.10;;
70787;SDS011;68385;47.752;19.100;2023-11-21T04:38:10;0.35;;;0.13;;
70787;SDS011;68385;47.752;19.100;2023-11-21T04:41:12;0.37;;;0.10;;
70787;SDS011;68385;47.752;19.100;2023-11-21T04:44:14;0.30;;;0.10;;
70787;SDS011;68385;47.752;19.100;2023-11-21T04:47:18;14.13;;;1.87;;
70787;SDS011;68385;47.752;19.100;2023-11-21T04:50:21;1.05;;;0.70;;
70787;SDS011;68385;47.752;19.100;2023-11-21T04:53:23;0.40;;;0.10;;
70787;SDS011;68385;47.752;19.100;2023-11-21T04:56:25;0.70;;;0.20;;
70787;SDS011;68385;47.752;19.100;2023-11-21T04:59:27;0.57;;;0.23;;
70787;SDS011;68385;47.752;19.100;2023-11-21T05:02:29;0.60;;;0.28;;
70787;SDS011;68385;47.752;19.100;2023-11-21T05:05:36;0.50;;;0.20;;
70787;SDS011;68385;47.752;19.100;2023-11-21T05:08:39;0.30;;;0.03;;
70787;SDS011;68385;47.752;19.100;2023-11-21T05:11:40;0.30;;;0.10;;
70787;SDS011;68385;47.752;19.100;2023-11-21T05:14:42;0.47;;;0.10;;
70787;SDS011;68385;47.752;19.100;2023-11-21T05:17:44;0.30;;;0.10;;
70787;SDS011;68385;47.752;19.100;2023-11-21T05:20:47;0.40;;;0.10;;
70787;SDS011;68385;47.752;19.100;2023-11-21T05:23:49;0.40;;;0.10;;
70787;SDS011;68385;47.752;19.100;2023-11-21T05:26:51;1.65;;;0.30;;
70787;SDS011;68385;47.752;19.100;2023-11-21T05:29:53;1.27;;;0.70;;
70787;SDS011;68385;47.752;19.100;2023-11-21T05:32:55;0.32;;;0.10;;
70787;SDS011;68385;47.752;19.100;2023-11-21T05:35:57;1.12;;;0.75;;
70787;SDS011;68385;47.752;19.100;2023-11-21T05:38:58;0.40;;;0.10;;
70787;SDS011;68385;47.752;19.100;2023-11-21T05:42:00;1.43;;;1.27;;
70787;SDS011;68385;47.752;19.100;2023-11-21T05:45:02;0.50;;;0.17;;
70787;SDS011;68385;47.752;19.100;2023-11-21T05:48:11;0.77;;;0.43;;
70787;SDS011;68385;47.752;19.100;2023-11-21T05:51:13;0.50;;;0.10;;
70787;SDS011;68385;47.752;19.100;2023-11-21T05:54:15;0.50;;;0.17;;
70787;SDS011;68385;47.752;19.100;2023-11-21T05:57:18;0.40;;;0.10;;
70787;SDS011;68385;47.752;19.100;2023-11-21T06:00:20;0.30;;;0.10;;
70787;SDS011;68385;47.752;19.100;2023-11-21T06:03:23;0.40;;;0.10;;
70787;SDS011;68385;47.752;19.100;2023-11-21T06:06:25;0.62;;;0.30;;
70787;SDS011;68385;47.752;19.100;2023-11-21T06:09:27;0.62;;;0.20;;
70787;SDS011;68385;47.752;19.100;2023-11-21T06:12:29;0.43;;;0.10;;
70787;SDS011;68385;47.752;19.100;2023-11-21T06:15:31;1.40;;;0.50;;
70787;SDS011;68385;47.752;19.100;2023-11-21T06:18:33;0.50;;;0.20;;
70787;SDS011;68385;47.752;19.100;2023-11-21T06:21:35;0.73;;;0.30;;
70787;SDS011;68385;47.752;19.100;2023-11-21T06:24:36;1.10;;;0.57;;
70787;SDS011;68385;47.752;19.100;2023-11-21T06:27:39;1.13;;;0.57;;
70787;SDS011;68385;47.752;19.100;2023-11-21T06:30:42;0.85;;;0.40;;
70787;SDS011;68385;47.752;19.100;2023-11-21T06:33:44;0.40;;;0.10;;
70787;SDS011;68385;47.752;19.100;2023-11-21T06:36:45;0.47;;;0.10;;
70787;SDS011;68385;47.752;19.100;2023-11-21T06:39:51;0.30;;;0.10;;
70787;SDS011;68385;47.752;19.100;2023-11-21T06:42:53;1.33;;;0.63;;
70787;SDS011;68385;47.752;19.100;2023-11-21T06:45:55;0.75;;;0.57;;
70787;SDS011;68385;47.752;19.100;2023-11-21T06:48:57;2.70;;;1.65;;
70787;SDS011;68385;47.752;19.100;2023-11-21T06:51:59;0.98;;;0.50;;
70787;SDS011;68385;47.752;19.100;2023-11-21T06:55:01;0.70;;;0.30;;
70787;SDS011;68385;47.752;19.100;2023-11-21T06:58:02;0.60;;;0.20;;
70787;SDS011;68385;47.752;19.100;2023-11-21T07:01:05;2.83;;;1.45;;
70787;SDS011;68385;47.752;19.100;2023-11-21T07:04:08;0.88;;;0.52;;
70787;SDS011;68385;47.752;19.100;2023-11-21T07:07:10;0.40;;;0.10;;
70787;SDS011;68385;47.752;19.100;2023-11-21T07:10:12;1.75;;;0.50;;
70787;SDS011;68385;47.752;19.100;2023-11-21T07:13:14;0.60;;;0.20;;
70787;SDS011;68385;47.752;19.100;2023-11-21T07:16:16;4.03;;;1.87;;
70787;SDS011;68385;47.752;19.100;2023-11-21T07:19:18;1.70;;;0.82;;
70787;SDS011;68385;47.752;19.100;2023-11-21T07:22:21;1.12;;;0.77;;
70787;SDS011;68385;47.752;19.100;2023-11-21T07:25:23;0.47;;;0.10;;
70787;SDS011;68385;47.752;19.100;2023-11-21T07:28:25;0.43;;;0.10;;
70787;SDS011;68385;47.752;19.100;2023-11-21T07:31:27;2.58;;;0.82;;
70787;SDS011;68385;47.752;19.100;2023-11-21T07:34:29;0.40;;;0.10;;
70787;SDS011;68385;47.752;19.100;2023-11-21T07:37:31;1.05;;;0.30;;
70787;SDS011;68385;47.752;19.100;2023-11-21T07:40:33;0.40;;;0.10;;
70787;SDS011;68385;47.752;19.100;2023-11-21T07:43:35;0.70;;;0.30;;
70787;SDS011;68385;47.752;19.100;2023-11-21T07:46:37;3.05;;;1.48;;
70787;SDS011;68385;47.752;19.100;2023-11-21T07:49:39;0.70;;;0.20;;
70787;SDS011;68385;47.752;19.100;2023-11-21T07:52:43;3.25;;;1.87;;
70787;SDS011;68385;47.752;19.100;2023-11-21T07:55:45;1.47;;;0.63;;
70787;SDS011;68385;47.752;19.100;2023-11-21T07:58:48;0.80;;;0.50;;
70787;SDS011;68385;47.752;19.100;2023-11-21T08:01:54;5.60;;;2.20;;
70787;SDS011;68385;47.752;19.100;2023-11-21T08:04:56;1.48;;;1.15;;
70787;SDS011;68385;47.752;19.100;2023-11-21T08:07:58;1.48;;;0.88;;
70787;SDS011;68385;47.752;19.100;2023-11-21T08:11:00;1.23;;;0.47;;
70787;SDS011;68385;47.752;19.100;2023-11-21T08:14:03;0.70;;;0.28;;
70787;SDS011;68385;47.752;19.100;2023-11-21T08:17:06;3.37;;;1.48;;
70787;SDS011;68385;47.752;19.100;2023-11-21T08:20:08;1.05;;;0.65;;
70787;SDS011;68385;47.752;19.100;2023-11-21T08:23:13;1.27;;;1.08;;
70787;SDS011;68385;47.752;19.100;2023-11-21T08:26:16;0.77;;;0.33;;
70787;SDS011;68385;47.752;19.100;2023-11-21T08:29:19;0.45;;;0.10;;
70787;SDS011;68385;47.752;19.100;2023-11-21T08:32:21;0.73;;;0.20;;
70787;SDS011;68385;47.752;19.100;2023-11-21T08:35:26;1.83;;;1.30;;
70787;SDS011;68385;47.752;19.100;2023-11-21T08:38:28;0.98;;;0.57;;
70787;SDS011;68385;47.752;19.100;2023-11-21T08:41:30;0.57;;;0.10;;
70787;SDS011;68385;47.752;19.100;2023-11-21T08:44:32;1.05;;;0.43;;
70787;SDS011;68385;47.752;19.100;2023-11-21T08:47:34;1.33;;;0.90;;
70787;SDS011;68385;47.752;19.100;2023-11-21T08:50:38;1.40;;;0.77;;
70787;SDS011;68385;47.752;19.100;2023-11-21T08:53:39;0.45;;;0.13;;
70787;SDS011;68385;47.752;19.100;2023-11-21T08:56:43;1.90;;;1.17;;
70787;SDS011;68385;47.752;19.100;2023-11-21T08:59:45;4.68;;;1.55;;
70787;SDS011;68385;47.752;19.100;2023-11-21T09:02:46;0.62;;;0.30;;
70787;SDS011;68385;47.752;19.100;2023-11-21T09:05:49;0.40;;;0.10;;
70787;SDS011;68385;47.752;19.100;2023-11-21T09:08:51;0.40;;;0.10;;
70787;SDS011;68385;47.752;19.100;2023-11-21T09:11:52;1.70;;;0.63;;
70787;SDS011;68385;47.752;19.100;2023-11-21T09:14:54;1.25;;;0.62;;
70787;SDS011;68385;47.752;19.100;2023-11-21T09:17:56;2.10;;;1.60;;
70787;SDS011;68385;47.752;19.100;2023-11-21T09:20:58;1.10;;;0.30;;
70787;SDS011;68385;47.752;19.100;2023-11-21T09:24:00;0.57;;;0.17;;
70787;SDS011;68385;47.752;19.100;2023-11-21T09:27:02;1.37;;;0.83;;
70787;SDS011;68385;47.752;19.100;2023-11-21T09:30:04;3.17;;;0.80;;
70787;SDS011;68385;47.752;19.100;2023-11-21T09:33:07;2.80;;;1.05;;
70787;SDS011;68385;47.752;19.100;2023-11-21T09:36:12;1.45;;;1.20;;
70787;SDS011;68385;47.752;19.100;2023-11-21T09:39:17;2.33;;;1.40;;
70787;SDS011;68385;47.752;19.100;2023-11-21T09:42:23;3.40;;;2.03;;
70787;SDS011;68385;47.752;19.100;2023-11-21T09:45:32;1.50;;;0.95;;
70787;SDS011;68385;47.752;19.100;2023-11-21T09:48:36;5.50;;;1.67;;
70787;SDS011;68385;47.752;19.100;2023-11-21T09:51:39;0.90;;;0.25;;
70787;SDS011;68385;47.752;19.100;2023-11-21T09:54:46;1.92;;;0.82;;
70787;SDS011;68385;47.752;19.100;2023-11-21T09:57:49;0.83;;;0.50;;
70787;SDS011;68385;47.752;19.100;2023-11-21T10:00:52;0.45;;;0.10;;
70787;SDS011;68385;47.752;19.100;2023-11-21T10:03:55;0.73;;;0.32;;
70787;SDS011;68385;47.752;19.100;2023-11-21T10:06:58;1.10;;;0.65;;
70787;SDS011;68385;47.752;19.100;2023-11-21T10:10:00;1.27;;;0.85;;
70787;SDS011;68385;47.752;19.100;2023-11-21T10:13:04;1.67;;;1.23;;
70787;SDS011;68385;47.752;19.100;2023-11-21T10:16:08;0.40;;;0.10;;
70787;SDS011;68385;47.752;19.100;2023-11-21T10:19:13;1.15;;;0.68;;
70787;SDS011;68385;47.752;19.100;2023-11-21T10:22:17;0.95;;;0.50;;
70787;SDS011;68385;47.752;19.100;2023-11-21T10:25:21;4.62;;;3.10;;
70787;SDS011;68385;47.752;19.100;2023-11-21T10:28:22;2.47;;;0.83;;
70787;SDS011;68385;47.752;19.100;2023-11-21T10:31:27;0.50;;;0.10;;
70787;SDS011;68385;47.752;19.100;2023-11-21T10:34:29;0.40;;;0.10;;
70787;SDS011;68385;47.752;19.100;2023-11-21T10:37:31;2.58;;;1.12;;
70787;SDS011;68385;47.752;19.100;2023-11-21T10:40:33;1.65;;;1.37;;
70787;SDS011;68385;47.752;19.100;2023-11-21T10:43:35;1.60;;;0.50;;
70787;SDS011;68385;47.752;19.100;2023-11-21T10:46:37;2.13;;;0.93;;
70787;SDS011;68385;47.752;19.100;2023-11-21T10:49:41;2.35;;;0.77;;
70787;SDS011;68385;47.752;19.100;2023-11-21T10:52:44;2.80;;;1.67;;
70787;SDS011;68385;47.752;19.100;2023-11-21T10:55:49;1.95;;;0.57;;
70787;SDS011;68385;47.752;19.100;2023-11-21T10:58:51;2.00;;;0.97;;
70787;SDS011;68385;47.752;19.100;2023-11-21T11:01:53;1.37;;;0.70;;
70787;SDS011;68385;47.752;19.100;2023-11-21T11:04:56;1.30;;;0.73;;
70787;SDS011;68385;47.752;19.100;2023-11-21T11:07:59;0.75;;;0.30;;
70787;SDS011;68385;47.752;19.100;2023-11-21T11:11:07;2.00;;;0.43;;
70787;SDS011;68385;47.752;19.100;2023-11-21T11:14:11;0.70;;;0.20;;
70787;SDS011;68385;47.752;19.100;2023-11-21T11:17:14;2.97;;;0.90;;
70787;SDS011;68385;47.752;19.100;2023-11-21T11:20:16;0.50;;;0.10;;
70787;SDS011;68385;47.752;19.100;2023-11-21T11:26:31;2.12;;;1.50;;
70787;SDS011;68385;47.752;19.100;2023-11-21T11:36:47;5.30;;;0.55;;
70787;SDS011;68385;47.752;19.100;2023-11-21T11:39:50;0.93;;;0.28;;
70787;SDS011;68385;47.752;19.100;2023-11-21T11:42:56;1.35;;;0.43;;
70787;SDS011;68385;47.752;19.100;2023-11-21T11:46:03;0.50;;;0.10;;
70787;SDS011;68385;47.752;19.100;2023-11-21T11:49:06;2.03;;;0.87;;
70787;SDS011;68385;47.752;19.100;2023-11-21T11:55:36;0.52;;;0.13;;
70787;SDS011;68385;47.752;19.100;2023-11-21T11:58:39;0.90;;;0.40;;
70787;SDS011;68385;47.752;19.100;2023-11-21T12:01:44;1.30;;;0.87;;
70787;SDS011;68385;47.752;19.100;2023-11-21T12:04:47;0.80;;;0.40;;
70787;SDS011;68385;47.752;19.100;2023-11-21T12:11:02;0.90;;;0.50;;
70787;SDS011;68385;47.752;19.100;2023-11-21T12:14:04;0.70;;;0.20;;
70787;SDS011;68385;47.752;19.100;2023-11-21T12:17:07;0.60;;;0.10;;
70787;SDS011;68385;47.752;19.100;2023-11-21T12:20:09;0.93;;;0.27;;
70787;SDS011;68385;47.752;19.100;2023-11-21T12:23:19;1.37;;;0.50;;
70787;SDS011;68385;47.752;19.100;2023-11-21T12:26:23;1.27;;;0.62;;
70787;SDS011;68385;47.752;19.100;2023-11-21T12:29:25;1.50;;;1.20;;
70787;SDS011;68385;47.752;19.100;2023-11-21T12:32:31;1.13;;;0.30;;
70787;SDS011;68385;47.752;19.100;2023-11-21T12:35:34;12.37;;;1.40;;
70787;SDS011;68385;47.752;19.100;2023-11-21T12:38:36;0.60;;;0.10;;
70787;SDS011;68385;47.752;19.100;2023-11-21T12:41:38;0.95;;;0.70;;
70787;SDS011;68385;47.752;19.100;2023-11-21T12:44:40;0.50;;;0.10;;
70787;SDS011;68385;47.752;19.100;2023-11-21T12:47:43;1.67;;;0.57;;
70787;SDS011;68385;47.752;19.100;2023-11-21T12:50:48;1.17;;;0.47;;
70787;SDS011;68385;47.752;19.100;2023-11-21T12:53:54;1.85;;;0.65;;
70787;SDS011;68385;47.752;19.100;2023-11-21T12:56:59;3.33;;;1.05;;
70787;SDS011;68385;47.752;19.100;2023-11-21T13:00:01;0.57;;;0.13;;
70787;SDS011;68385;47.752;19.100;2023-11-21T13:03:13;1.20;;;0.53;;
70787;SDS011;68385;47.752;19.100;2023-11-21T13:06:21;2.40;;;1.20;;
70787;SDS011;68385;47.752;19.100;2023-11-21T13:09:26;0.60;;;0.20;;
70787;SDS011;68385;47.752;19.100;2023-11-21T13:12:29;0.50;;;0.10;;
70787;SDS011;68385;47.752;19.100;2023-11-21T13:15:33;0.40;;;0.10;;
70787;SDS011;68385;47.752;19.100;2023-11-21T13:18:36;0.73;;;0.13;;
70787;SDS011;68385;47.752;19.100;2023-11-21T13:21:43;2.30;;;0.57;;
70787;SDS011;68385;47.752;19.100;2023-11-21T13:24:45;5.55;;;0.55;;
70787;SDS011;68385;47.752;19.100;2023-11-21T13:27:47;1.12;;;0.65;;
70787;SDS011;68385;47.752;19.100;2023-11-21T13:30:49;1.30;;;0.57;;
70787;SDS011;68385;47.752;19.100;2023-11-21T13:33:54;2.40;;;0.87;;
70787;SDS011;68385;47.752;19.100;2023-11-21T13:37:05;0.80;;;0.30;;
70787;SDS011;68385;47.752;19.100;2023-11-21T13:40:09;0.55;;;0.10;;
70787;SDS011;68385;47.752;19.100;2023-11-21T13:43:16;0.50;;;0.10;;
70787;SDS011;68385;47.752;19.100;2023-11-21T13:46:20;0.98;;;0.50;;
70787;SDS011;68385;47.752;19.100;2023-11-21T13:49:24;0.50;;;0.10;;
70787;SDS011;68385;47.752;19.100;2023-11-21T13:52:27;0.70;;;0.20;;
70787;SDS011;68385;47.752;19.100;2023-11-21T13:55:31;1.12;;;0.20;;
70787;SDS011;68385;47.752;19.100;2023-11-21T13:58:33;0.60;;;0.10;;
70787;SDS011;68385;47.752;19.100;2023-11-21T14:01:48;0.70;;;0.25;;
70787;SDS011;68385;47.752;19.100;2023-11-21T14:04:53;0.57;;;0.10;;
70787;SDS011;68385;47.752;19.100;2023-11-21T14:07:56;1.80;;;1.20;;
70787;SDS011;68385;47.752;19.100;2023-11-21T14:11:04;1.27;;;0.85;;
70787;SDS011;68385;47.752;19.100;2023-11-21T14:14:08;0.40;;;0.10;;
70787;SDS011;68385;47.752;19.100;2023-11-21T14:17:11;3.60;;;3.30;;
70787;SDS011;68385;47.752;19.100;2023-11-21T14:20:13;0.40;;;0.10;;
70787;SDS011;68385;47.752;19.100;2023-11-21T14:23:18;3.10;;;1.95;;
70787;SDS011;68385;47.752;19.100;2023-11-21T14:26:20;1.15;;;0.75;;
70787;SDS011;68385;47.752;19.100;2023-11-21T14:29:22;0.50;;;0.10;;
70787;SDS011;68385;47.752;19.100;2023-11-21T14:32:25;0.90;;;0.37;;
70787;SDS011;68385;47.752;19.100;2023-11-21T14:35:27;0.57;;;0.13;;
70787;SDS011;68385;47.752;19.100;2023-11-21T14:38:31;0.40;;;0.10;;
70787;SDS011;68385;47.752;19.100;2023-11-21T14:41:34;0.40;;;0.10;;
70787;SDS011;68385;47.752;19.100;2023-11-21T14:44:38;4.45;;;0.95;;
70787;SDS011;68385;47.752;19.100;2023-11-21T14:47:42;1.05;;;0.68;;
70787;SDS011;68385;47.752;19.100;2023-11-21T14:50:50;1.57;;;0.93;;
70787;SDS011;68385;47.752;19.100;2023-11-21T14:54:04;1.67;;;0.95;;
70787;SDS011;68385;47.752;19.100;2023-11-21T14:57:09;1.75;;;1.23;;
70787;SDS011;68385;47.752;19.100;2023-11-21T15:00:13;1.05;;;0.62;;
70787;SDS011;68385;47.752;19.100;2023-11-21T15:07:02;1.10;;;0.47;;
70787;SDS011;68385;47.752;19.100;2023-11-21T15:10:07;3.03;;;2.05;;
70787;SDS011;68385;47.752;19.100;2023-11-21T15:13:18;1.10;;;0.77;;
70787;SDS011;68385;47.752;19.100;2023-11-21T15:16:19;1.20;;;0.62;;
70787;SDS011;68385;47.752;19.100;2023-11-21T15:19:21;1.17;;;0.60;;
70787;SDS011;68385;47.752;19.100;2023-11-21T15:22:27;4.57;;;1.40;;
70787;SDS011;68385;47.752;19.100;2023-11-21T15:25:32;14.50;;;7.20;;
70787;SDS011;68385;47.752;19.100;2023-11-21T15:28:34;1.52;;;1.25;;
70787;SDS011;68385;47.752;19.100;2023-11-21T15:31:37;1.75;;;0.82;;
70787;SDS011;68385;47.752;19.100;2023-11-21T15:34:40;1.08;;;0.52;;
70787;SDS011;68385;47.752;19.100;2023-11-21T15:37:42;3.70;;;1.37;;
70787;SDS011;68385;47.752;19.100;2023-11-21T15:40:44;1.20;;;0.45;;
70787;SDS011;68385;47.752;19.100;2023-11-21T15:43:47;3.45;;;3.17;;
70787;SDS011;68385;47.752;19.100;2023-11-21T15:46:50;0.60;;;0.20;;
70787;SDS011;68385;47.752;19.100;2023-11-21T15:49:52;2.97;;;2.65;;
70787;SDS011;68385;47.752;19.100;2023-11-21T15:52:54;1.20;;;0.73;;
70787;SDS011;68385;47.752;19.100;2023-11-21T15:55:58;2.25;;;1.17;;
70787;SDS011;68385;47.752;19.100;2023-11-21T15:59:01;1.90;;;0.82;;
70787;SDS011;68385;47.752;19.100;2023-11-21T16:02:03;1.77;;;1.27;;
70787;SDS011;68385;47.752;19.100;2023-11-21T16:05:09;2.97;;;1.23;;
70787;SDS011;68385;47.752;19.100;2023-11-21T16:08:11;0.97;;;0.47;;
70787;SDS011;68385;47.752;19.100;2023-11-21T16:11:14;2.83;;;1.62;;
70787;SDS011;68385;47.752;19.100;2023-11-21T16:14:16;4.03;;;1.70;;
70787;SDS011;68385;47.752;19.100;2023-11-21T16:17:21;2.25;;;1.55;;
70787;SDS011;68385;47.752;19.100;2023-11-21T16:20:23;1.67;;;1.33;;
70787;SDS011;68385;47.752;19.100;2023-11-21T16:23:27;1.00;;;0.60;;
70787;SDS011;68385;47.752;19.100;2023-11-21T16:26:29;5.95;;;2.92;;
70787;SDS011;68385;47.752;19.100;2023-11-21T16:29:33;5.60;;;3.00;;
70787;SDS011;68385;47.752;19.100;2023-11-21T16:32:35;7.65;;;2.00;;
70787;SDS011;68385;47.752;19.100;2023-11-21T16:35:38;4.45;;;3.30;;
70787;SDS011;68385;47.752;19.100;2023-11-21T16:38:43;9.40;;;4.43;;
70787;SDS011;68385;47.752;19.100;2023-11-21T16:41:45;4.37;;;2.20;;
70787;SDS011;68385;47.752;19.100;2023-11-21T16:44:48;6.15;;;3.10;;
70787;SDS011;68385;47.752;19.100;2023-11-21T16:47:50;1.85;;;1.12;;
70787;SDS011;68385;47.752;19.100;2023-11-21T16:50:52;0.50;;;0.10;;
70787;SDS011;68385;47.752;19.100;2023-11-21T16:53:54;3.13;;;1.83;;
70787;SDS011;68385;47.752;19.100;2023-11-21T16:56:56;2.08;;;1.12;;
70787;SDS011;68385;47.752;19.100;2023-11-21T16:59:58;6.57;;;2.53;;
70787;SDS011;68385;47.752;19.100;2023-11-21T17:03:00;0.65;;;0.25;;
70787;SDS011;68385;47.752;19.100;2023-11-21T17:06:02;2.35;;;1.23;;
70787;SDS011;68385;47.752;19.100;2023-11-21T17:09:07;1.00;;;0.43;;
70787;SDS011;68385;47.752;19.100;2023-11-21T17:12:11;2.50;;;1.98;;
70787;SDS011;68385;47.752;19.100;2023-11-21T17:15:13;5.62;;;3.35;;
70787;SDS011;68385;47.752;19.100;2023-11-21T17:18:14;4.43;;;2.03;;
70787;SDS011;68385;47.752;19.100;2023-11-21T17:21:16;2.25;;;1.85;;
70787;SDS011;68385;47.752;19.100;2023-11-21T17:24:29;6.80;;;2.83;;
70787;SDS011;68385;47.752;19.100;2023-11-21T17:27:32;2.03;;;1.70;;
70787;SDS011;68385;47.752;19.100;2023-11-21T17:30:35;3.10;;;2.50;;
70787;SDS011;68385;47.752;19.100;2023-11-21T17:33:37;8.68;;;3.35;;
70787;SDS011;68385;47.752;19.100;2023-11-21T17:36:40;4.90;;;3.40;;
70787;SDS011;68385;47.752;19.100;2023-11-21T17:39:43;3.23;;;1.93;;
70787;SDS011;68385;47.752;19.100;2023-11-21T17:42:45;3.15;;;1.42;;
70787;SDS011;68385;47.752;19.100;2023-11-21T17:45:47;8.48;;;3.03;;
70787;SDS011;68385;47.752;19.100;2023-11-21T17:48:50;8.77;;;6.22;;
70787;SDS011;68385;47.752;19.100;2023-11-21T17:51:56;8.45;;;5.85;;
70787;SDS011;68385;47.752;19.100;2023-11-21T17:54:59;11.10;;;6.40;;
70787;SDS011;68385;47.752;19.100;2023-11-21T17:58:01;15.30;;;7.45;;
70787;SDS011;68385;47.752;19.100;2023-11-21T18:01:02;5.55;;;5.05;;
70787;SDS011;68385;47.752;19.100;2023-11-21T18:04:05;11.10;;;9.90;;
70787;SDS011;68385;47.752;19.100;2023-11-21T18:07:08;4.60;;;2.95;;
70787;SDS011;68385;47.752;19.100;2023-11-21T18:10:09;10.00;;;2.33;;
70787;SDS011;68385;47.752;19.100;2023-11-21T18:13:12;3.17;;;2.50;;
70787;SDS011;68385;47.752;19.100;2023-11-21T18:16:15;1.35;;;0.68;;
70787;SDS011;68385;47.752;19.100;2023-11-21T18:19:17;7.10;;;3.92;;
70787;SDS011;68385;47.752;19.100;2023-11-21T18:22:21;2.17;;;1.35;;
70787;SDS011;68385;47.752;19.100;2023-11-21T18:25:26;10.33;;;5.17;;
70787;SDS011;68385;47.752;19.100;2023-11-21T18:28:30;14.93;;;6.82;;
70787;SDS011;68385;47.752;19.100;2023-11-21T18:31:33;6.93;;;5.32;;